Strona główna
METAR-TAF:

METAR-TAF

Lotnisko :

Melun, Francja

Szerokość geograficzna: 48-37N, Długość geograficzna: 002-41E, wysokość: 95 m

Aktualna obserwacja pogody

Raport powstał 33 minut temu, godzina 12:00 UTC
Wiatr 3 kt z kierunków zmiennych
Temperatura 27°C
Wilgotność 37%
Ciśnienie 1014 hPa
Widzialność 10 km lub więcej
Brak chmur poniżej 1500 m i brak chmur cumulonimbus

METAR: LFPM 171200Z AUTO VRB03KT CAVOK 27/11 Q1014

czas: 14:33 (12:33 UTC)


TAF: brakujący

Obserwacja i prognoza pogody dla ponad 4000 lotnisk (raport METAR i TAF).

Dostępne stacje oznaczono żółtymi i czerwonymi punktami na mapie.

Najedź kursorem aby zobaczyć nazwę stacji.

Kliknij aby zobaczyć obserwacje i prognozy pogody.

Aby zmienić mapę: kliknij na zielony przycisk z czarnym krzyżykiem, aby powiększyć; na zielony przycisk z myślnikiem, aby pomniejszyć; na zielone strzałki, aby przejść do map sąsiednich.


METAR-TAF: